• Join FlightAware (Why Join?)
  • Login
  • US Flag 
05:42AM EDT


 

Airport Tracker/Info


-or-


 

Live Flight TrackerFlight Track Log ✈ SKW6470 ✈ 27-Apr-2012 ✈ KLAX - KSLC

Flight Track Log - Related Links

Times and Time Zones

All times are in EDT time to prevent confusion due to time zone crossing. See the SKW6470 flight status page for this flight to view local times or setup timezone preferences in your user account.

Time Position Orientation Groundspeed Altitude Reporting Facility
EDT Latitude Longitude Course Direction KTS MPH feet Rate Location/Type
12:36AM 35.7234 -116.8738 36° Northeast  Level Estimated
12:37AM 35.7964 -116.8090 36° Northeast  Level Estimated
12:38AM 35.8694 -116.7442 36° Northeast  Level Estimated
12:39AM 35.9423 -116.6792 36° Northeast  Level Estimated
12:40AM 36.0152 -116.6142 36° Northeast  Level Estimated
12:41AM 36.0881 -116.5490 36° Northeast  Level Estimated
12:42AM 36.1609 -116.4836 36° Northeast  Level Estimated
12:43AM 36.2337 -116.4182 36° Northeast  Level Estimated
12:44AM 36.3065 -116.3526 36° Northeast  Level Estimated
12:45AM 36.3792 -116.2869 36° Northeast  Level Estimated
12:46AM 36.4519 -116.2211 36° Northeast  Level Estimated
12:47AM 36.5246 -116.1552 36° Northeast  Level Estimated
12:48AM 36.5972 -116.0891 36° Northeast  Level Estimated
12:49AM 36.6698 -116.0230 36° Northeast  Level Estimated
12:50AM 36.7424 -115.9566 36° Northeast  Level Estimated
12:51AM 36.8149 -115.8902 36° Northeast  Level Estimated
12:52AM 36.8873 -115.8237 36° Northeast  Level Estimated
12:53AM 36.9598 -115.7570 36° Northeast  Level Estimated
12:54AM 37.0322 -115.6902 36° Northeast  Level Estimated
12:55AM 37.1045 -115.6232 36° Northeast  Level Estimated
12:56AM 37.1769 -115.5562 36° Northeast  Level Estimated
12:57AM 37.2492 -115.4890 37° Northeast  Level Estimated
12:58AM 37.3214 -115.4216 37° Northeast  Level Estimated
12:59AM 37.3936 -115.3542 37° Northeast  Level Estimated
01:00AM 37.4658 -115.2866 37° Northeast  Level Estimated
01:01AM 37.5379 -115.2189 37° Northeast  Level Estimated
01:02AM 37.6101 -115.1510 37° Northeast  Level Estimated
01:03AM 37.6821 -115.0831 37° Northeast  Level Estimated
01:04AM 37.7541 -115.0149 37° Northeast  Level Estimated
01:05AM 37.8261 -114.9467 37° Northeast  Level Estimated
01:06AM 37.8980 -114.8783 37° Northeast  Level Estimated
01:07AM 37.9700 -114.8098 37° Northeast  Level Estimated
01:08AM 38.0418 -114.7412 37° Northeast  Level Estimated
01:09AM 38.1136 -114.6724 37° Northeast  Level Estimated
01:10AM 38.1854 -114.6035 37° Northeast  Level Estimated
01:11AM 38.2571 -114.5344 37° Northeast  Level Estimated
01:12AM 38.3288 -114.4652 37° Northeast  Level Estimated
01:13AM 38.4005 -114.3959 37° Northeast  Level Estimated
01:14AM 38.4721 -114.3265 37° Northeast  Level Estimated
01:15AM 38.5437 -114.2569 37° Northeast  Level Estimated
01:16AM 38.6152 -114.1871 37° Northeast  Level Estimated
01:17AM 38.6867 -114.1173 37° Northeast  Level Estimated
01:18AM 38.7582 -114.0472 37° Northeast  Level Estimated
01:19AM 38.8296 -113.9771 37° Northeast  Level Estimated
01:20AM 38.9010 -113.9068 38° Northeast  Level Estimated
01:21AM 38.9723 -113.8363 38° Northeast  Level Estimated
01:22AM 39.0436 -113.7658 38° Northeast  Level Estimated
01:23AM 39.1148 -113.6951 38° Northeast  Level Estimated
01:24AM 39.1860 -113.6242 38° Northeast  Level Estimated
01:25AM 39.2572 -113.5532 38° Northeast  Level Estimated
01:26AM 39.3283 -113.4820 38° Northeast  Level Estimated
01:27AM 39.3994 -113.4107 38° Northeast  Level Estimated
01:28AM 39.4704 -113.3393 38° Northeast  Level Estimated
01:29AM 39.5414 -113.2677 38° Northeast  Level Estimated
01:30AM 39.6123 -113.1960 38° Northeast  Level Estimated
01:31AM 39.6832 -113.1241 38° Northeast  Level Estimated
01:32AM 39.7541 -113.0520 38° Northeast  Level Estimated
01:33AM 39.8249 -112.9799 38° Northeast  Level Estimated
01:34AM 39.8956 -112.9075 38° Northeast  Level Estimated
01:35AM 39.9663 -112.8351 38° Northeast  Level Estimated
01:36AM 40.0370 -112.7624 38° Northeast  Level Estimated
01:37AM 40.1076 -112.6897 38° Northeast  Level Estimated
01:38AM 40.1782 -112.6167 38° Northeast  Level Estimated
01:39AM 40.2487 -112.5436 38° Northeast  Level Estimated
01:40AM 40.3192 -112.4704 38° Northeast  Level Estimated
01:41AM 40.3897 -112.3970 38° Northeast  Level Estimated
01:42AM 40.4600 -112.3235 39° Northeast  Level Estimated
01:43AM 40.5304 -112.2498 39° Northeast  Level Estimated
01:44AM 40.6007 -112.1759 39° Northeast  Level Estimated
01:45AM 40.6710 -112.1019 39° Northeast  Level Estimated
01:46AM 40.7412 -112.0278 39° Northeast  Level Estimated
01:47AM 40.8113 -111.9535 219° Southwest  Level Estimated
01:48AM 40.7412 -112.0278 39° Northeast  Level Estimated
01:49AM 40.8113 -111.9535 219° Southwest  Level Estimated
01:50AM 40.7412 -112.0278 39° Northeast  Level Estimated
01:51AM 40.8113 -111.9535 39° Northeast  Level Estimated